sensor_id;sensor_type;location;lat;lon;timestamp;pressure;altitude;pressure_sealevel;temperature;humidity
21821;BME280;11073;48.586;12.066;2023-05-08T00:00:29;96699.78;;;17.14;52.61
21821;BME280;11073;48.586;12.066;2023-05-08T00:02:58;96694.31;;;17.14;52.48
21821;BME280;11073;48.586;12.066;2023-05-08T00:05:27;96695.97;;;17.15;52.45
21821;BME280;11073;48.586;12.066;2023-05-08T00:07:55;96698.97;;;17.03;52.41
21821;BME280;11073;48.586;12.066;2023-05-08T00:10:28;96697.59;;;17.00;52.64
21821;BME280;11073;48.586;12.066;2023-05-08T00:12:57;96704.69;;;17.01;52.59
21821;BME280;11073;48.586;12.066;2023-05-08T00:15:27;96698.69;;;17.04;52.56
21821;BME280;11073;48.586;12.066;2023-05-08T00:17:56;96707.47;;;16.96;52.58
21821;BME280;11073;48.586;12.066;2023-05-08T00:20:26;96706.88;;;16.94;52.47
21821;BME280;11073;48.586;12.066;2023-05-08T00:22:55;96712.91;;;16.91;52.61
21821;BME280;11073;48.586;12.066;2023-05-08T00:25:24;96718.09;;;16.83;52.47
21821;BME280;11073;48.586;12.066;2023-05-08T00:27:52;96720.00;;;16.87;52.61
21821;BME280;11073;48.586;12.066;2023-05-08T00:30:22;96723.56;;;16.77;52.68
21821;BME280;11073;48.586;12.066;2023-05-08T00:32:52;96723.03;;;16.86;52.98
21821;BME280;11073;48.586;12.066;2023-05-08T00:35:21;96732.06;;;16.91;52.92
21821;BME280;11073;48.586;12.066;2023-05-08T00:37:50;96730.13;;;16.87;52.84
21821;BME280;11073;48.586;12.066;2023-05-08T00:40:19;96736.41;;;16.77;53.01
21821;BME280;11073;48.586;12.066;2023-05-08T00:42:48;96736.41;;;16.77;53.07
21821;BME280;11073;48.586;12.066;2023-05-08T00:45:17;96741.88;;;16.77;53.12
21821;BME280;11073;48.586;12.066;2023-05-08T00:47:46;96741.03;;;16.71;53.37
21821;BME280;11073;48.586;12.066;2023-05-08T00:50:17;96749.53;;;16.80;53.42
21821;BME280;11073;48.586;12.066;2023-05-08T00:52:45;96739.16;;;16.82;53.22
21821;BME280;11073;48.586;12.066;2023-05-08T00:55:14;96743.53;;;16.83;53.34
21821;BME280;11073;48.586;12.066;2023-05-08T00:57:45;96747.88;;;16.79;53.08
21821;BME280;11073;48.586;12.066;2023-05-08T01:00:15;96753.59;;;16.72;53.13
21821;BME280;11073;48.586;12.066;2023-05-08T01:02:45;96754.69;;;16.71;53.31
21821;BME280;11073;48.586;12.066;2023-05-08T01:05:16;96766.47;;;16.72;53.31
21821;BME280;11073;48.586;12.066;2023-05-08T01:07:45;96763.13;;;16.65;53.38
21821;BME280;11073;48.586;12.066;2023-05-08T01:10:14;96762.03;;;16.66;53.14
21821;BME280;11073;48.586;12.066;2023-05-08T01:12:52;96766.97;;;16.59;53.35
21821;BME280;11073;48.586;12.066;2023-05-08T01:15:28;96769.94;;;16.57;53.20
21821;BME280;11073;48.586;12.066;2023-05-08T01:18:06;96767.19;;;16.57;53.54
21821;BME280;11073;48.586;12.066;2023-05-08T01:20:44;96782.22;;;16.49;53.51
21821;BME280;11073;48.586;12.066;2023-05-08T01:23:31;96778.97;;;16.52;53.56
21821;BME280;11073;48.586;12.066;2023-05-08T01:26:32;96780.88;;;16.52;53.50
21821;BME280;11073;48.586;12.066;2023-05-08T01:32:13;96782.19;;;16.39;53.70
21821;BME280;11073;48.586;12.066;2023-05-08T01:34:50;96781.66;;;16.47;53.96
21821;BME280;11073;48.586;12.066;2023-05-08T01:37:29;96780.59;;;16.53;53.83
21821;BME280;11073;48.586;12.066;2023-05-08T01:40:07;96781.94;;;16.46;53.85
21821;BME280;11073;48.586;12.066;2023-05-08T01:42:47;96773.41;;;16.32;54.03
21821;BME280;11073;48.586;12.066;2023-05-08T01:45:21;96778.59;;;16.34;54.23
21821;BME280;11073;48.586;12.066;2023-05-08T01:48:02;96765.69;;;16.19;54.27
21821;BME280;11073;48.586;12.066;2023-05-08T01:50:35;96786.81;;;16.34;54.46
21821;BME280;11073;48.586;12.066;2023-05-08T01:53:09;96785.44;;;16.36;54.56
21821;BME280;11073;48.586;12.066;2023-05-08T01:55:42;96783.25;;;16.33;54.76
21821;BME280;11073;48.586;12.066;2023-05-08T01:58:11;96784.91;;;16.39;54.66
21821;BME280;11073;48.586;12.066;2023-05-08T02:00:42;96792.84;;;16.41;54.80
21821;BME280;11073;48.586;12.066;2023-05-08T02:03:15;96782.69;;;16.36;54.79
21821;BME280;11073;48.586;12.066;2023-05-08T02:05:46;96788.09;;;16.21;54.80
21821;BME280;11073;48.586;12.066;2023-05-08T02:08:17;96785.38;;;16.16;55.02
21821;BME280;11073;48.586;12.066;2023-05-08T02:10:49;96787.50;;;16.09;55.20
21821;BME280;11073;48.586;12.066;2023-05-08T02:13:20;96788.63;;;16.13;55.33
21821;BME280;11073;48.586;12.066;2023-05-08T02:15:52;96795.72;;;16.14;55.59
21821;BME280;11073;48.586;12.066;2023-05-08T02:18:24;96802.34;;;16.23;55.40
21821;BME280;11073;48.586;12.066;2023-05-08T02:20:55;96797.41;;;16.25;55.43
21821;BME280;11073;48.586;12.066;2023-05-08T02:23:26;96796.56;;;16.19;55.49
21821;BME280;11073;48.586;12.066;2023-05-08T02:25:57;96801.75;;;16.16;55.46
21821;BME280;11073;48.586;12.066;2023-05-08T02:28:28;96805.22;;;16.06;55.67
21821;BME280;11073;48.586;12.066;2023-05-08T02:30:59;96805.50;;;16.05;55.60
21821;BME280;11073;48.586;12.066;2023-05-08T02:33:29;96813.59;;;15.89;55.63
21821;BME280;11073;48.586;12.066;2023-05-08T02:36:01;96808.09;;;15.84;56.03
21821;BME280;11073;48.586;12.066;2023-05-08T02:38:32;96815.19;;;15.80;56.22
21821;BME280;11073;48.586;12.066;2023-05-08T02:41:04;96813.56;;;15.79;56.35
21821;BME280;11073;48.586;12.066;2023-05-08T02:43:34;96817.00;;;15.64;56.47
21821;BME280;11073;48.586;12.066;2023-05-08T02:46:10;96818.78;;;15.54;56.56
21821;BME280;11073;48.586;12.066;2023-05-08T02:48:50;96823.94;;;15.50;56.79
21821;BME280;11073;48.586;12.066;2023-05-08T02:51:25;96822.84;;;15.51;57.00
21821;BME280;11073;48.586;12.066;2023-05-08T02:53:58;96826.69;;;15.50;57.00
21821;BME280;11073;48.586;12.066;2023-05-08T02:56:36;96828.47;;;15.39;57.43
21821;BME280;11073;48.586;12.066;2023-05-08T02:59:16;96829.28;;;15.40;57.50
21821;BME280;11073;48.586;12.066;2023-05-08T03:01:50;96824.47;;;15.20;57.65
21821;BME280;11073;48.586;12.066;2023-05-08T03:04:25;96835.91;;;15.17;57.67
21821;BME280;11073;48.586;12.066;2023-05-08T03:06:57;96831.22;;;15.12;58.11
21821;BME280;11073;48.586;12.066;2023-05-08T03:09:37;96834.16;;;15.06;57.70
21821;BME280;11073;48.586;12.066;2023-05-08T03:12:11;96834.47;;;14.82;57.83
21821;BME280;11073;48.586;12.066;2023-05-08T03:14:45;96831.81;;;14.66;57.65
21821;BME280;11073;48.586;12.066;2023-05-08T03:17:21;96830.94;;;14.60;57.97
21821;BME280;11073;48.586;12.066;2023-05-08T03:19:55;96839.81;;;14.50;57.80
21821;BME280;11073;48.586;12.066;2023-05-08T03:22:28;96836.34;;;14.38;58.00
21821;BME280;11073;48.586;12.066;2023-05-08T03:24:59;96836.69;;;14.42;58.31
21821;BME280;11073;48.586;12.066;2023-05-08T03:27:32;96842.69;;;14.44;58.28
21821;BME280;11073;48.586;12.066;2023-05-08T03:30:01;96834.47;;;14.39;58.20
21821;BME280;11073;48.586;12.066;2023-05-08T03:32:36;96842.50;;;14.28;58.60
21821;BME280;11073;48.586;12.066;2023-05-08T03:35:09;96832.78;;;14.16;58.91
21821;BME280;11073;48.586;12.066;2023-05-08T03:37:39;96840.16;;;14.15;58.81
21821;BME280;11073;48.586;12.066;2023-05-08T03:40:09;96831.34;;;14.08;59.03
21821;BME280;11073;48.586;12.066;2023-05-08T03:42:39;96841.47;;;14.13;59.05
21821;BME280;11073;48.586;12.066;2023-05-08T03:45:10;96843.03;;;14.08;59.50
21821;BME280;11073;48.586;12.066;2023-05-08T03:47:40;96828.88;;;14.06;59.52
21821;BME280;11073;48.586;12.066;2023-05-08T03:50:12;96834.78;;;14.03;59.55
21821;BME280;11073;48.586;12.066;2023-05-08T03:52:42;96838.13;;;13.89;59.35
21821;BME280;11073;48.586;12.066;2023-05-08T03:55:11;96833.03;;;13.75;59.49
21821;BME280;11073;48.586;12.066;2023-05-08T03:57:46;96841.44;;;13.74;59.65
21821;BME280;11073;48.586;12.066;2023-05-08T04:00:21;96841.94;;;13.71;59.66
21821;BME280;11073;48.586;12.066;2023-05-08T04:02:59;96837.34;;;13.71;60.03
21821;BME280;11073;48.586;12.066;2023-05-08T04:05:37;96839.16;;;13.66;59.91
21821;BME280;11073;48.586;12.066;2023-05-08T04:08:14;96846.47;;;13.65;59.70
21821;BME280;11073;48.586;12.066;2023-05-08T04:10:47;96849.94;;;13.61;59.75
21821;BME280;11073;48.586;12.066;2023-05-08T04:13:19;96853.75;;;13.76;60.04
21821;BME280;11073;48.586;12.066;2023-05-08T04:15:51;96862.28;;;14.02;60.01
21821;BME280;11073;48.586;12.066;2023-05-08T04:18:27;96867.13;;;14.17;60.13
21821;BME280;11073;48.586;12.066;2023-05-08T04:21:01;96866.47;;;14.10;59.80
21821;BME280;11073;48.586;12.066;2023-05-08T04:23:31;96863.91;;;14.03;59.83
21821;BME280;11073;48.586;12.066;2023-05-08T04:26:02;96861.06;;;13.93;59.81
21821;BME280;11073;48.586;12.066;2023-05-08T04:28:33;96867.72;;;14.02;60.08
21821;BME280;11073;48.586;12.066;2023-05-08T04:31:02;96868.72;;;14.13;59.95
21821;BME280;11073;48.586;12.066;2023-05-08T04:33:33;96870.78;;;14.05;60.06
21821;BME280;11073;48.586;12.066;2023-05-08T04:36:05;96879.53;;;13.91;59.79
21821;BME280;11073;48.586;12.066;2023-05-08T04:38:39;96883.06;;;13.74;59.84
21821;BME280;11073;48.586;12.066;2023-05-08T04:41:09;96872.13;;;13.69;60.04
21821;BME280;11073;48.586;12.066;2023-05-08T04:43:38;96882.00;;;13.75;60.28
21821;BME280;11073;48.586;12.066;2023-05-08T04:46:07;96877.22;;;13.83;60.60
21821;BME280;11073;48.586;12.066;2023-05-08T04:48:36;96882.84;;;13.93;60.22
21821;BME280;11073;48.586;12.066;2023-05-08T04:51:07;96884.66;;;13.70;59.96
21821;BME280;11073;48.586;12.066;2023-05-08T04:53:35;96884.81;;;13.64;60.09
21821;BME280;11073;48.586;12.066;2023-05-08T04:56:05;96899.31;;;13.52;60.17
21821;BME280;11073;48.586;12.066;2023-05-08T04:58:34;96903.09;;;13.35;60.09
21821;BME280;11073;48.586;12.066;2023-05-08T05:01:04;96906.88;;;13.34;60.21
21821;BME280;11073;48.586;12.066;2023-05-08T05:03:33;96915.25;;;13.32;60.69
21821;BME280;11073;48.586;12.066;2023-05-08T05:06:02;96916.44;;;13.36;60.46
21821;BME280;11073;48.586;12.066;2023-05-08T05:08:32;96914.44;;;13.32;60.81
21821;BME280;11073;48.586;12.066;2023-05-08T05:11:01;96911.41;;;13.45;61.01
21821;BME280;11073;48.586;12.066;2023-05-08T05:13:30;96916.44;;;13.53;60.90
21821;BME280;11073;48.586;12.066;2023-05-08T05:15:58;96917.44;;;13.47;60.77
21821;BME280;11073;48.586;12.066;2023-05-08T05:18:28;96911.97;;;13.30;60.96
21821;BME280;11073;48.586;12.066;2023-05-08T05:20:57;96910.69;;;13.33;61.01
21821;BME280;11073;48.586;12.066;2023-05-08T05:23:28;96915.22;;;13.44;61.10
21821;BME280;11073;48.586;12.066;2023-05-08T05:25:58;96919.59;;;13.45;60.75
21821;BME280;11073;48.586;12.066;2023-05-08T05:28:27;96908.31;;;13.24;60.32
21821;BME280;11073;48.586;12.066;2023-05-08T05:30:56;96916.66;;;13.06;60.31
21821;BME280;11073;48.586;12.066;2023-05-08T05:33:25;96918.88;;;13.09;60.69
21821;BME280;11073;48.586;12.066;2023-05-08T05:35:54;96913.38;;;13.04;60.56
21821;BME280;11073;48.586;12.066;2023-05-08T05:38:23;96917.78;;;12.93;60.71
21821;BME280;11073;48.586;12.066;2023-05-08T05:40:52;96921.69;;;12.97;60.58
21821;BME280;11073;48.586;12.066;2023-05-08T05:43:22;96929.22;;;12.95;61.00
21821;BME280;11073;48.586;12.066;2023-05-08T05:45:50;96933.22;;;13.05;60.64
21821;BME280;11073;48.586;12.066;2023-05-08T05:48:19;96931.91;;;13.07;61.07
21821;BME280;11073;48.586;12.066;2023-05-08T05:50:48;96930.69;;;13.15;60.54
21821;BME280;11073;48.586;12.066;2023-05-08T05:53:17;96933.16;;;13.16;60.51
21821;BME280;11073;48.586;12.066;2023-05-08T05:55:47;96936.28;;;13.08;60.73
21821;BME280;11073;48.586;12.066;2023-05-08T05:58:16;96929.25;;;13.24;60.55
21821;BME280;11073;48.586;12.066;2023-05-08T06:00:46;96934.81;;;13.17;60.25
21821;BME280;11073;48.586;12.066;2023-05-08T06:03:14;96935.88;;;13.16;60.54
21821;BME280;11073;48.586;12.066;2023-05-08T06:05:45;96930.56;;;13.21;60.37
21821;BME280;11073;48.586;12.066;2023-05-08T06:08:14;96936.47;;;13.18;60.10
21821;BME280;11073;48.586;12.066;2023-05-08T06:10:44;96942.63;;;13.26;60.16
21821;BME280;11073;48.586;12.066;2023-05-08T06:13:13;96931.16;;;13.23;59.68
21821;BME280;11073;48.586;12.066;2023-05-08T06:15:46;96949.22;;;13.30;59.62
21821;BME280;11073;48.586;12.066;2023-05-08T06:18:17;96942.81;;;13.36;59.52
21821;BME280;11073;48.586;12.066;2023-05-08T06:20:47;96923.63;;;13.14;59.41
21821;BME280;11073;48.586;12.066;2023-05-08T06:23:15;96945.56;;;13.24;59.57
21821;BME280;11073;48.586;12.066;2023-05-08T06:25:44;96951.25;;;13.22;59.13
21821;BME280;11073;48.586;12.066;2023-05-08T06:28:13;96947.16;;;13.08;59.13
21821;BME280;11073;48.586;12.066;2023-05-08T06:30:41;96955.72;;;13.17;59.35
21821;BME280;11073;48.586;12.066;2023-05-08T06:33:11;96955.22;;;13.32;59.27
21821;BME280;11073;48.586;12.066;2023-05-08T06:35:40;96956.84;;;13.44;59.13
21821;BME280;11073;48.586;12.066;2023-05-08T06:38:08;96959.88;;;13.19;58.96
21821;BME280;11073;48.586;12.066;2023-05-08T06:40:40;96953.06;;;13.05;59.09
21821;BME280;11073;48.586;12.066;2023-05-08T06:43:10;96945.06;;;12.98;59.28
21821;BME280;11073;48.586;12.066;2023-05-08T06:45:39;96957.53;;;13.23;59.46
21821;BME280;11073;48.586;12.066;2023-05-08T06:48:08;96956.59;;;13.46;59.30
21821;BME280;11073;48.586;12.066;2023-05-08T06:50:38;96958.31;;;13.52;59.41
21821;BME280;11073;48.586;12.066;2023-05-08T06:53:08;96954.13;;;13.44;58.78
21821;BME280;11073;48.586;12.066;2023-05-08T06:55:37;96957.09;;;13.43;58.76
21821;BME280;11073;48.586;12.066;2023-05-08T06:58:06;96958.97;;;13.42;59.09
21821;BME280;11073;48.586;12.066;2023-05-08T07:00:34;96950.41;;;13.34;59.05
21821;BME280;11073;48.586;12.066;2023-05-08T07:03:03;96951.63;;;13.26;59.11
21821;BME280;11073;48.586;12.066;2023-05-08T07:05:32;96955.72;;;13.29;59.16
21821;BME280;11073;48.586;12.066;2023-05-08T07:08:03;96966.88;;;13.44;59.25
21821;BME280;11073;48.586;12.066;2023-05-08T07:10:32;96967.09;;;13.71;59.05
21821;BME280;11073;48.586;12.066;2023-05-08T07:13:01;96970.44;;;13.61;58.90
21821;BME280;11073;48.586;12.066;2023-05-08T07:15:30;96968.09;;;13.65;58.69
21821;BME280;11073;48.586;12.066;2023-05-08T07:17:59;96962.75;;;13.70;58.77
21821;BME280;11073;48.586;12.066;2023-05-08T07:20:28;96973.38;;;13.88;58.66
21821;BME280;11073;48.586;12.066;2023-05-08T07:22:57;96971.72;;;13.87;58.58
21821;BME280;11073;48.586;12.066;2023-05-08T07:25:27;96969.25;;;13.86;58.42
21821;BME280;11073;48.586;12.066;2023-05-08T07:27:55;96963.81;;;13.86;58.58
21821;BME280;11073;48.586;12.066;2023-05-08T07:30:27;96963.81;;;13.86;58.29
21821;BME280;11073;48.586;12.066;2023-05-08T07:32:56;96965.97;;;13.84;58.23
21821;BME280;11073;48.586;12.066;2023-05-08T07:35:25;96960.69;;;13.94;58.65
21821;BME280;11073;48.586;12.066;2023-05-08T07:37:53;96968.44;;;14.02;58.26
21821;BME280;11073;48.586;12.066;2023-05-08T07:40:22;96962.31;;;14.12;58.29
21821;BME280;11073;48.586;12.066;2023-05-08T07:42:52;96968.03;;;14.27;58.21
21821;BME280;11073;48.586;12.066;2023-05-08T07:45:21;96969.06;;;14.59;58.37
21821;BME280;11073;48.586;12.066;2023-05-08T07:47:50;96966.16;;;14.66;57.93
21821;BME280;11073;48.586;12.066;2023-05-08T07:50:20;96967.88;;;14.72;57.43
21821;BME280;11073;48.586;12.066;2023-05-08T07:52:49;96971.28;;;14.84;56.97
21821;BME280;11073;48.586;12.066;2023-05-08T07:55:18;96972.38;;;14.83;56.82
21821;BME280;11073;48.586;12.066;2023-05-08T07:57:48;96969.66;;;14.83;56.70
21821;BME280;11073;48.586;12.066;2023-05-08T08:00:19;96975.28;;;14.99;56.64
21821;BME280;11073;48.586;12.066;2023-05-08T08:02:48;96985.34;;;15.42;56.79
21821;BME280;11073;48.586;12.066;2023-05-08T08:05:18;96982.78;;;15.79;56.42
21821;BME280;11073;48.586;12.066;2023-05-08T08:07:46;96972.28;;;15.98;56.01
21821;BME280;11073;48.586;12.066;2023-05-08T08:10:15;96982.91;;;16.26;55.72
21821;BME280;11073;48.586;12.066;2023-05-08T08:12:44;96983.94;;;16.58;55.15
21821;BME280;11073;48.586;12.066;2023-05-08T08:15:12;96977.78;;;16.72;54.31
21821;BME280;11073;48.586;12.066;2023-05-08T08:17:42;96984.28;;;16.66;53.67
21821;BME280;11073;48.586;12.066;2023-05-08T08:20:11;96980.16;;;16.64;53.49
21821;BME280;11073;48.586;12.066;2023-05-08T08:22:40;96980.50;;;16.72;53.13
21821;BME280;11073;48.586;12.066;2023-05-08T08:25:09;96980.16;;;16.64;52.63
21821;BME280;11073;48.586;12.066;2023-05-08T08:27:38;96980.19;;;16.69;52.74
21821;BME280;11073;48.586;12.066;2023-05-08T08:30:07;96982.22;;;16.84;52.90
21821;BME280;11073;48.586;12.066;2023-05-08T08:32:46;96979.31;;;17.05;52.63
21821;BME280;11073;48.586;12.066;2023-05-08T08:35:14;96959.06;;;17.06;52.42
21821;BME280;11073;48.586;12.066;2023-05-08T08:37:44;96976.41;;;17.27;52.23
21821;BME280;11073;48.586;12.066;2023-05-08T08:40:13;96977.25;;;17.43;52.10
21821;BME280;11073;48.586;12.066;2023-05-08T08:42:42;96976.78;;;17.61;51.75
21821;BME280;11073;48.586;12.066;2023-05-08T08:45:10;96985.59;;;17.84;51.12
21821;BME280;11073;48.586;12.066;2023-05-08T08:47:43;96983.94;;;17.73;50.57
21821;BME280;11073;48.586;12.066;2023-05-08T08:50:13;96972.75;;;17.84;50.61
21821;BME280;11073;48.586;12.066;2023-05-08T08:52:47;96976.88;;;17.97;50.22
21821;BME280;11073;48.586;12.066;2023-05-08T08:55:21;96965.06;;;18.22;50.43
21821;BME280;11073;48.586;12.066;2023-05-08T08:58:03;96982.31;;;18.58;50.21
21821;BME280;11073;48.586;12.066;2023-05-08T09:00:35;96982.59;;;18.77;49.65
21821;BME280;11073;48.586;12.066;2023-05-08T09:03:04;96980.69;;;18.67;49.43
21821;BME280;11073;48.586;12.066;2023-05-08T09:05:35;96974.09;;;18.58;49.18
21821;BME280;11073;48.586;12.066;2023-05-08T09:08:04;96977.94;;;18.62;48.70
21821;BME280;11073;48.586;12.066;2023-05-08T09:10:34;96979.84;;;18.77;49.08
21821;BME280;11073;48.586;12.066;2023-05-08T09:13:03;96976.25;;;18.82;48.60
21821;BME280;11073;48.586;12.066;2023-05-08T09:15:32;96987.47;;;19.00;48.71
21821;BME280;11073;48.586;12.066;2023-05-08T09:18:01;96982.72;;;19.21;48.61
21821;BME280;11073;48.586;12.066;2023-05-08T09:20:30;96981.59;;;19.27;47.99
21821;BME280;11073;48.586;12.066;2023-05-08T09:23:01;96978.81;;;19.38;47.84
21821;BME280;11073;48.586;12.066;2023-05-08T09:25:42;96972.16;;;19.49;47.87
21821;BME280;11073;48.586;12.066;2023-05-08T09:28:20;96979.94;;;19.26;47.19
21821;BME280;11073;48.586;12.066;2023-05-08T09:30:51;96975.63;;;19.10;47.33
21821;BME280;11073;48.586;12.066;2023-05-08T09:33:24;96968.50;;;19.09;47.04
21821;BME280;11073;48.586;12.066;2023-05-08T09:35:54;96970.66;;;19.17;47.29
21821;BME280;11073;48.586;12.066;2023-05-08T09:38:34;96973.28;;;19.43;46.90
21821;BME280;11073;48.586;12.066;2023-05-08T09:41:08;96972.38;;;19.63;47.11
21821;BME280;11073;48.586;12.066;2023-05-08T09:43:37;96979.56;;;19.98;47.08
21821;BME280;11073;48.586;12.066;2023-05-08T09:46:19;96971.94;;;20.29;46.74
21821;BME280;11073;48.586;12.066;2023-05-08T09:48:50;96977.38;;;20.34;45.78
21821;BME280;11073;48.586;12.066;2023-05-08T09:51:20;96966.78;;;20.17;45.83
21821;BME280;11073;48.586;12.066;2023-05-08T09:53:51;96975.81;;;20.57;45.94
21821;BME280;11073;48.586;12.066;2023-05-08T09:56:31;96974.44;;;21.07;45.28
21821;BME280;11073;48.586;12.066;2023-05-08T09:59:02;96969.34;;;21.43;45.11
21821;BME280;11073;48.586;12.066;2023-05-08T10:01:32;96980.72;;;21.61;44.58
21821;BME280;11073;48.586;12.066;2023-05-08T10:04:02;96979.44;;;21.72;44.18
21821;BME280;11073;48.586;12.066;2023-05-08T10:06:32;96978.88;;;22.13;43.90
21821;BME280;11073;48.586;12.066;2023-05-08T10:09:11;96984.59;;;22.35;43.21
21821;BME280;11073;48.586;12.066;2023-05-08T10:11:41;96980.13;;;22.39;43.39
21821;BME280;11073;48.586;12.066;2023-05-08T10:14:14;96978.22;;;22.53;42.75
21821;BME280;11073;48.586;12.066;2023-05-08T10:16:43;96976.56;;;22.52;42.73
21821;BME280;11073;48.586;12.066;2023-05-08T10:19:13;96972.53;;;22.31;42.04
21821;BME280;11073;48.586;12.066;2023-05-08T10:21:45;96973.16;;;22.09;41.80
21821;BME280;11073;48.586;12.066;2023-05-08T10:24:18;96976.31;;;21.97;42.23
21821;BME280;11073;48.586;12.066;2023-05-08T10:26:56;96977.00;;;22.08;42.38
21821;BME280;11073;48.586;12.066;2023-05-08T10:29:40;96966.47;;;22.29;41.93
21821;BME280;11073;48.586;12.066;2023-05-08T10:32:10;96979.41;;;22.47;42.15
21821;BME280;11073;48.586;12.066;2023-05-08T10:34:41;96971.28;;;22.70;42.03
21821;BME280;11073;48.586;12.066;2023-05-08T10:37:12;96970.97;;;22.90;41.70
21821;BME280;11073;48.586;12.066;2023-05-08T10:39:43;96968.31;;;23.13;41.48
21821;BME280;11073;48.586;12.066;2023-05-08T10:42:12;96970.75;;;23.42;40.84
21821;BME280;11073;48.586;12.066;2023-05-08T10:44:41;96973.94;;;23.35;40.63
21821;BME280;11073;48.586;12.066;2023-05-08T10:47:15;96959.47;;;22.83;39.98
21821;BME280;11073;48.586;12.066;2023-05-08T10:49:50;96948.88;;;23.04;40.42
21821;BME280;11073;48.586;12.066;2023-05-08T10:52:30;96953.78;;;23.48;40.28
21821;BME280;11073;48.586;12.066;2023-05-08T10:55:19;96953.94;;;23.79;39.72
21821;BME280;11073;48.586;12.066;2023-05-08T10:58:09;96953.78;;;23.98;39.59
21821;BME280;11073;48.586;12.066;2023-05-08T11:01:10;96950.13;;;24.11;39.32
21821;BME280;11073;48.586;12.066;2023-05-08T11:03:41;96955.03;;;23.92;39.10
21821;BME280;11073;48.586;12.066;2023-05-08T11:06:11;96954.41;;;23.95;39.27
21821;BME280;11073;48.586;12.066;2023-05-08T11:08:49;96948.38;;;23.93;38.93
21821;BME280;11073;48.586;12.066;2023-05-08T11:11:27;96940.41;;;23.91;38.85
21821;BME280;11073;48.586;12.066;2023-05-08T11:14:08;96942.03;;;23.92;38.87
21821;BME280;11073;48.586;12.066;2023-05-08T11:17:03;96941.53;;;23.90;39.04
21821;BME280;11073;48.586;12.066;2023-05-08T11:19:33;96937.91;;;23.90;39.22
21821;BME280;11073;48.586;12.066;2023-05-08T11:22:25;96939.56;;;23.91;39.11
21821;BME280;11073;48.586;12.066;2023-05-08T11:25:03;96945.06;;;24.05;39.03
21821;BME280;11073;48.586;12.066;2023-05-08T11:27:39;96950.50;;;24.18;38.81
21821;BME280;11073;48.586;12.066;2023-05-08T11:30:20;96946.88;;;24.09;38.62
21821;BME280;11073;48.586;12.066;2023-05-08T11:33:14;96950.28;;;24.06;38.71
21821;BME280;11073;48.586;12.066;2023-05-08T11:35:49;96940.84;;;24.07;38.58
21821;BME280;11073;48.586;12.066;2023-05-08T11:38:23;96943.41;;;24.26;38.69
21821;BME280;11073;48.586;12.066;2023-05-08T11:40:58;96942.88;;;24.38;38.29
21821;BME280;11073;48.586;12.066;2023-05-08T11:43:57;96937.22;;;24.43;37.89
21821;BME280;11073;48.586;12.066;2023-05-08T11:46:35;96935.28;;;24.43;37.80
21821;BME280;11073;48.586;12.066;2023-05-08T11:49:09;96933.56;;;24.56;37.87
21821;BME280;11073;48.586;12.066;2023-05-08T11:51:39;96932.28;;;24.62;37.71
21821;BME280;11073;48.586;12.066;2023-05-08T11:54:14;96934.41;;;24.34;37.47
21821;BME280;11073;48.586;12.066;2023-05-08T11:56:44;96930.78;;;24.11;37.61
21821;BME280;11073;48.586;12.066;2023-05-08T11:59:16;96934.06;;;24.13;37.79
21821;BME280;11073;48.586;12.066;2023-05-08T12:01:47;96931.66;;;24.20;37.88
21821;BME280;11073;48.586;12.066;2023-05-08T12:04:42;96928.22;;;24.37;37.93
21821;BME280;11073;48.586;12.066;2023-05-08T12:07:11;96929.41;;;24.45;37.57
21821;BME280;11073;48.586;12.066;2023-05-08T12:09:40;96938.56;;;24.54;37.44
21821;BME280;11073;48.586;12.066;2023-05-08T12:12:09;96938.84;;;24.75;37.66
21821;BME280;11073;48.586;12.066;2023-05-08T12:14:39;96940.41;;;24.90;37.43
21821;BME280;11073;48.586;12.066;2023-05-08T12:17:08;96942.63;;;25.10;37.32
21821;BME280;11073;48.586;12.066;2023-05-08T12:19:37;96945.63;;;25.22;36.91
21821;BME280;11073;48.586;12.066;2023-05-08T12:22:07;96937.78;;;25.24;36.49
21821;BME280;11073;48.586;12.066;2023-05-08T12:24:37;96941.50;;;25.20;36.74
21821;BME280;11073;48.586;12.066;2023-05-08T12:27:06;96935.03;;;25.33;36.76
21821;BME280;11073;48.586;12.066;2023-05-08T12:29:35;96927.91;;;25.49;36.46
21821;BME280;11073;48.586;12.066;2023-05-08T12:32:06;96935.56;;;25.44;36.01
21821;BME280;11073;48.586;12.066;2023-05-08T12:34:35;96931.47;;;25.33;35.95
21821;BME280;11073;48.586;12.066;2023-05-08T12:37:03;96929.63;;;25.19;36.09
21821;BME280;11073;48.586;12.066;2023-05-08T12:39:35;96931.13;;;25.25;36.67
21821;BME280;11073;48.586;12.066;2023-05-08T12:42:05;96934.22;;;25.24;36.37
21821;BME280;11073;48.586;12.066;2023-05-08T12:44:33;96926.91;;;25.37;36.56
21821;BME280;11073;48.586;12.066;2023-05-08T12:47:03;96923.00;;;25.38;36.30
21821;BME280;11073;48.586;12.066;2023-05-08T12:49:34;96933.09;;;25.34;36.34
21821;BME280;11073;48.586;12.066;2023-05-08T12:52:26;96928.91;;;25.71;36.44
21821;BME280;11073;48.586;12.066;2023-05-08T12:54:55;96932.91;;;25.96;36.31
21821;BME280;11073;48.586;12.066;2023-05-08T12:57:24;96932.22;;;25.99;35.68
21821;BME280;11073;48.586;12.066;2023-05-08T13:00:02;96929.63;;;26.20;35.65
21821;BME280;11073;48.586;12.066;2023-05-08T13:02:31;96932.22;;;26.42;35.43
21821;BME280;11073;48.586;12.066;2023-05-08T13:05:07;96920.97;;;26.04;35.27
21821;BME280;11073;48.586;12.066;2023-05-08T13:07:36;96919.69;;;26.01;35.42
21821;BME280;11073;48.586;12.066;2023-05-08T13:10:05;96918.56;;;25.94;35.05
21821;BME280;11073;48.586;12.066;2023-05-08T13:12:35;96911.13;;;25.63;35.45
21821;BME280;11073;48.586;12.066;2023-05-08T13:15:04;96913.00;;;26.02;35.59
21821;BME280;11073;48.586;12.066;2023-05-08T13:17:33;96916.56;;;26.37;35.43